sensor_id;sensor_type;location;lat;lon;timestamp;temperature;humidity
8463;DHT22;4268;52.506;13.462;2022-07-26T00:01:11;21.10;99.90
8463;DHT22;4268;52.506;13.462;2022-07-26T00:03:36;21.10;99.90
8463;DHT22;4268;52.506;13.462;2022-07-26T00:06:01;21.00;99.90
8463;DHT22;4268;52.506;13.462;2022-07-26T00:08:27;21.00;99.90
8463;DHT22;4268;52.506;13.462;2022-07-26T00:10:52;20.90;99.90
8463;DHT22;4268;52.506;13.462;2022-07-26T00:13:19;20.80;99.90
8463;DHT22;4268;52.506;13.462;2022-07-26T00:15:46;20.80;99.90
8463;DHT22;4268;52.506;13.462;2022-07-26T00:18:13;20.80;99.90
8463;DHT22;4268;52.506;13.462;2022-07-26T00:20:39;20.70;99.90
8463;DHT22;4268;52.506;13.462;2022-07-26T00:23:05;20.70;99.90
8463;DHT22;4268;52.506;13.462;2022-07-26T00:25:30;20.70;99.90
8463;DHT22;4268;52.506;13.462;2022-07-26T00:27:56;20.60;99.90
8463;DHT22;4268;52.506;13.462;2022-07-26T00:30:22;20.60;99.90
8463;DHT22;4268;52.506;13.462;2022-07-26T00:32:47;20.60;99.90
8463;DHT22;4268;52.506;13.462;2022-07-26T00:35:13;20.60;99.90
8463;DHT22;4268;52.506;13.462;2022-07-26T00:37:39;20.50;99.90
8463;DHT22;4268;52.506;13.462;2022-07-26T00:40:06;20.50;99.90
8463;DHT22;4268;52.506;13.462;2022-07-26T00:42:32;20.50;99.90
8463;DHT22;4268;52.506;13.462;2022-07-26T00:44:58;20.50;99.90
8463;DHT22;4268;52.506;13.462;2022-07-26T00:47:24;20.50;99.90
8463;DHT22;4268;52.506;13.462;2022-07-26T00:49:49;20.50;99.90
8463;DHT22;4268;52.506;13.462;2022-07-26T00:52:15;20.50;99.90
8463;DHT22;4268;52.506;13.462;2022-07-26T00:54:43;20.50;99.90
8463;DHT22;4268;52.506;13.462;2022-07-26T00:57:10;20.40;99.90
8463;DHT22;4268;52.506;13.462;2022-07-26T00:59:36;20.40;99.90
8463;DHT22;4268;52.506;13.462;2022-07-26T01:02:04;20.40;99.90
8463;DHT22;4268;52.506;13.462;2022-07-26T01:04:30;20.40;99.90
8463;DHT22;4268;52.506;13.462;2022-07-26T01:06:56;20.40;99.90
8463;DHT22;4268;52.506;13.462;2022-07-26T01:09:22;20.40;99.90
8463;DHT22;4268;52.506;13.462;2022-07-26T01:11:48;20.40;99.90
8463;DHT22;4268;52.506;13.462;2022-07-26T01:14:13;20.40;99.90
8463;DHT22;4268;52.506;13.462;2022-07-26T01:16:39;20.40;99.90
8463;DHT22;4268;52.506;13.462;2022-07-26T01:19:04;20.30;99.90
8463;DHT22;4268;52.506;13.462;2022-07-26T01:21:31;20.30;99.90
8463;DHT22;4268;52.506;13.462;2022-07-26T01:23:57;20.30;99.90
8463;DHT22;4268;52.506;13.462;2022-07-26T01:26:23;20.30;99.90
8463;DHT22;4268;52.506;13.462;2022-07-26T01:28:48;20.30;99.90
8463;DHT22;4268;52.506;13.462;2022-07-26T01:31:15;20.30;99.90
8463;DHT22;4268;52.506;13.462;2022-07-26T01:33:41;20.40;99.90
8463;DHT22;4268;52.506;13.462;2022-07-26T01:36:07;20.40;99.90
8463;DHT22;4268;52.506;13.462;2022-07-26T01:38:33;20.40;99.90
8463;DHT22;4268;52.506;13.462;2022-07-26T01:40:58;20.40;99.90
8463;DHT22;4268;52.506;13.462;2022-07-26T01:43:24;20.40;99.90
8463;DHT22;4268;52.506;13.462;2022-07-26T01:45:49;20.40;99.90
8463;DHT22;4268;52.506;13.462;2022-07-26T01:48:15;20.30;99.90
8463;DHT22;4268;52.506;13.462;2022-07-26T01:50:41;20.40;99.90
8463;DHT22;4268;52.506;13.462;2022-07-26T01:53:06;20.40;99.90
8463;DHT22;4268;52.506;13.462;2022-07-26T01:55:32;20.40;99.90
8463;DHT22;4268;52.506;13.462;2022-07-26T01:57:57;20.30;99.90
8463;DHT22;4268;52.506;13.462;2022-07-26T02:00:23;20.40;99.90
8463;DHT22;4268;52.506;13.462;2022-07-26T02:02:48;20.40;99.90
8463;DHT22;4268;52.506;13.462;2022-07-26T02:05:14;20.40;99.90
8463;DHT22;4268;52.506;13.462;2022-07-26T02:07:41;20.40;99.90
8463;DHT22;4268;52.506;13.462;2022-07-26T02:10:10;20.40;99.90
8463;DHT22;4268;52.506;13.462;2022-07-26T02:12:37;20.30;99.90
8463;DHT22;4268;52.506;13.462;2022-07-26T02:15:04;20.40;99.90
8463;DHT22;4268;52.506;13.462;2022-07-26T02:17:30;20.40;99.90
8463;DHT22;4268;52.506;13.462;2022-07-26T02:19:55;20.40;99.90
8463;DHT22;4268;52.506;13.462;2022-07-26T02:22:21;20.40;99.90
8463;DHT22;4268;52.506;13.462;2022-07-26T02:24:47;20.40;99.90
8463;DHT22;4268;52.506;13.462;2022-07-26T02:27:13;20.40;99.90
8463;DHT22;4268;52.506;13.462;2022-07-26T02:29:39;20.30;99.90
8463;DHT22;4268;52.506;13.462;2022-07-26T02:32:04;20.30;99.90
8463;DHT22;4268;52.506;13.462;2022-07-26T02:34:30;20.30;99.90
8463;DHT22;4268;52.506;13.462;2022-07-26T02:36:56;20.30;99.90
8463;DHT22;4268;52.506;13.462;2022-07-26T02:39:22;20.30;99.90
8463;DHT22;4268;52.506;13.462;2022-07-26T02:41:56;20.30;99.90
8463;DHT22;4268;52.506;13.462;2022-07-26T02:44:23;20.20;99.90
8463;DHT22;4268;52.506;13.462;2022-07-26T02:46:49;20.20;99.90
8463;DHT22;4268;52.506;13.462;2022-07-26T02:49:15;20.20;99.90
8463;DHT22;4268;52.506;13.462;2022-07-26T02:51:41;20.10;99.90
8463;DHT22;4268;52.506;13.462;2022-07-26T02:54:06;20.10;99.90
8463;DHT22;4268;52.506;13.462;2022-07-26T02:56:32;20.10;99.90
8463;DHT22;4268;52.506;13.462;2022-07-26T02:58:57;20.00;99.90
8463;DHT22;4268;52.506;13.462;2022-07-26T03:01:23;20.00;99.90
8463;DHT22;4268;52.506;13.462;2022-07-26T03:03:49;20.00;99.90
8463;DHT22;4268;52.506;13.462;2022-07-26T03:06:14;20.00;99.90
8463;DHT22;4268;52.506;13.462;2022-07-26T03:08:40;20.00;99.90
8463;DHT22;4268;52.506;13.462;2022-07-26T03:11:05;19.90;99.90
8463;DHT22;4268;52.506;13.462;2022-07-26T03:13:31;19.90;99.90
8463;DHT22;4268;52.506;13.462;2022-07-26T03:15:57;19.90;99.90
8463;DHT22;4268;52.506;13.462;2022-07-26T03:18:22;19.90;99.90
8463;DHT22;4268;52.506;13.462;2022-07-26T03:20:48;19.90;99.90
8463;DHT22;4268;52.506;13.462;2022-07-26T03:23:14;19.90;99.90
8463;DHT22;4268;52.506;13.462;2022-07-26T03:25:39;19.90;99.90
8463;DHT22;4268;52.506;13.462;2022-07-26T03:28:05;19.90;99.90
8463;DHT22;4268;52.506;13.462;2022-07-26T03:30:30;19.80;99.90
8463;DHT22;4268;52.506;13.462;2022-07-26T03:32:56;19.90;99.90
8463;DHT22;4268;52.506;13.462;2022-07-26T03:35:21;19.80;99.90
8463;DHT22;4268;52.506;13.462;2022-07-26T03:37:47;19.80;99.90
8463;DHT22;4268;52.506;13.462;2022-07-26T03:40:14;19.90;99.90
8463;DHT22;4268;52.506;13.462;2022-07-26T03:42:40;19.80;99.90
8463;DHT22;4268;52.506;13.462;2022-07-26T03:45:06;19.90;99.90
8463;DHT22;4268;52.506;13.462;2022-07-26T03:47:32;19.80;99.90
8463;DHT22;4268;52.506;13.462;2022-07-26T03:49:58;19.80;99.90
8463;DHT22;4268;52.506;13.462;2022-07-26T03:52:39;19.80;99.90
8463;DHT22;4268;52.506;13.462;2022-07-26T03:55:05;19.80;99.90
8463;DHT22;4268;52.506;13.462;2022-07-26T03:57:51;19.80;99.90
8463;DHT22;4268;52.506;13.462;2022-07-26T04:00:16;19.80;99.90
8463;DHT22;4268;52.506;13.462;2022-07-26T04:02:42;19.90;99.90
8463;DHT22;4268;52.506;13.462;2022-07-26T04:05:08;19.90;99.90
8463;DHT22;4268;52.506;13.462;2022-07-26T04:07:40;19.90;99.90
8463;DHT22;4268;52.506;13.462;2022-07-26T04:10:07;19.90;99.90
8463;DHT22;4268;52.506;13.462;2022-07-26T04:12:32;19.90;99.90
8463;DHT22;4268;52.506;13.462;2022-07-26T04:14:58;19.90;99.90
8463;DHT22;4268;52.506;13.462;2022-07-26T04:17:23;19.80;99.90
8463;DHT22;4268;52.506;13.462;2022-07-26T04:19:48;19.80;99.90
8463;DHT22;4268;52.506;13.462;2022-07-26T04:22:14;19.80;99.90
8463;DHT22;4268;52.506;13.462;2022-07-26T04:24:39;19.80;99.90
8463;DHT22;4268;52.506;13.462;2022-07-26T04:27:05;19.80;99.90
8463;DHT22;4268;52.506;13.462;2022-07-26T04:29:30;19.80;99.90
8463;DHT22;4268;52.506;13.462;2022-07-26T04:31:56;19.80;99.90
8463;DHT22;4268;52.506;13.462;2022-07-26T04:34:21;19.80;99.90
8463;DHT22;4268;52.506;13.462;2022-07-26T04:36:47;19.80;99.90
8463;DHT22;4268;52.506;13.462;2022-07-26T04:39:12;19.90;99.90
8463;DHT22;4268;52.506;13.462;2022-07-26T04:41:38;19.90;99.90
8463;DHT22;4268;52.506;13.462;2022-07-26T04:44:03;19.90;99.90
8463;DHT22;4268;52.506;13.462;2022-07-26T04:46:29;19.90;99.90
8463;DHT22;4268;52.506;13.462;2022-07-26T04:48:54;19.90;99.90
8463;DHT22;4268;52.506;13.462;2022-07-26T04:51:20;20.00;99.90
8463;DHT22;4268;52.506;13.462;2022-07-26T04:53:45;20.00;99.90
8463;DHT22;4268;52.506;13.462;2022-07-26T04:56:11;20.10;99.90
8463;DHT22;4268;52.506;13.462;2022-07-26T04:58:36;20.10;99.90
8463;DHT22;4268;52.506;13.462;2022-07-26T05:01:02;20.20;99.90
8463;DHT22;4268;52.506;13.462;2022-07-26T05:03:27;20.10;99.90
8463;DHT22;4268;52.506;13.462;2022-07-26T05:05:53;20.20;99.90
8463;DHT22;4268;52.506;13.462;2022-07-26T05:08:19;20.30;99.90
8463;DHT22;4268;52.506;13.462;2022-07-26T05:10:45;20.30;99.90
8463;DHT22;4268;52.506;13.462;2022-07-26T05:13:10;20.40;99.90
8463;DHT22;4268;52.506;13.462;2022-07-26T05:15:36;20.40;99.90
8463;DHT22;4268;52.506;13.462;2022-07-26T05:18:04;20.40;99.90
8463;DHT22;4268;52.506;13.462;2022-07-26T05:20:30;20.50;99.90
8463;DHT22;4268;52.506;13.462;2022-07-26T05:22:56;20.50;99.90
8463;DHT22;4268;52.506;13.462;2022-07-26T05:25:22;20.50;99.90
8463;DHT22;4268;52.506;13.462;2022-07-26T05:27:47;20.50;99.90
8463;DHT22;4268;52.506;13.462;2022-07-26T05:30:13;20.60;99.90
8463;DHT22;4268;52.506;13.462;2022-07-26T05:32:38;20.60;99.90
8463;DHT22;4268;52.506;13.462;2022-07-26T05:35:06;20.60;99.90
8463;DHT22;4268;52.506;13.462;2022-07-26T05:37:32;20.70;99.90
8463;DHT22;4268;52.506;13.462;2022-07-26T05:39:57;20.70;99.90
8463;DHT22;4268;52.506;13.462;2022-07-26T05:42:23;20.70;99.90
8463;DHT22;4268;52.506;13.462;2022-07-26T05:44:50;20.70;99.90
8463;DHT22;4268;52.506;13.462;2022-07-26T05:47:15;20.80;99.90
8463;DHT22;4268;52.506;13.462;2022-07-26T05:49:41;20.70;99.90
8463;DHT22;4268;52.506;13.462;2022-07-26T05:52:09;20.70;99.90
8463;DHT22;4268;52.506;13.462;2022-07-26T05:54:35;20.80;99.90
8463;DHT22;4268;52.506;13.462;2022-07-26T05:57:01;20.80;99.90
8463;DHT22;4268;52.506;13.462;2022-07-26T05:59:26;20.90;99.90
8463;DHT22;4268;52.506;13.462;2022-07-26T06:01:52;21.00;99.90
8463;DHT22;4268;52.506;13.462;2022-07-26T06:04:21;21.00;99.90
8463;DHT22;4268;52.506;13.462;2022-07-26T06:06:47;21.10;99.90
8463;DHT22;4268;52.506;13.462;2022-07-26T06:09:13;21.30;99.90
8463;DHT22;4268;52.506;13.462;2022-07-26T06:11:38;21.40;99.90
8463;DHT22;4268;52.506;13.462;2022-07-26T06:14:04;21.60;99.90
8463;DHT22;4268;52.506;13.462;2022-07-26T06:16:29;21.80;99.90
8463;DHT22;4268;52.506;13.462;2022-07-26T06:18:55;22.10;99.90
8463;DHT22;4268;52.506;13.462;2022-07-26T06:21:20;22.30;99.90
8463;DHT22;4268;52.506;13.462;2022-07-26T06:23:46;22.70;99.90
8463;DHT22;4268;52.506;13.462;2022-07-26T06:26:11;23.10;99.90
8463;DHT22;4268;52.506;13.462;2022-07-26T06:28:37;23.40;99.90
8463;DHT22;4268;52.506;13.462;2022-07-26T06:31:04;23.50;99.90
8463;DHT22;4268;52.506;13.462;2022-07-26T06:33:29;24.10;99.90
8463;DHT22;4268;52.506;13.462;2022-07-26T06:35:55;24.90;99.90
8463;DHT22;4268;52.506;13.462;2022-07-26T06:38:20;25.80;99.30
8463;DHT22;4268;52.506;13.462;2022-07-26T06:40:46;26.50;96.40
8463;DHT22;4268;52.506;13.462;2022-07-26T06:43:11;26.80;94.80
8463;DHT22;4268;52.506;13.462;2022-07-26T06:45:37;26.90;94.10
8463;DHT22;4268;52.506;13.462;2022-07-26T06:48:02;27.30;92.90
8463;DHT22;4268;52.506;13.462;2022-07-26T06:50:28;27.40;92.00
8463;DHT22;4268;52.506;13.462;2022-07-26T06:52:53;27.60;91.40
8463;DHT22;4268;52.506;13.462;2022-07-26T06:55:19;27.70;90.80
8463;DHT22;4268;52.506;13.462;2022-07-26T06:57:45;27.50;90.80
8463;DHT22;4268;52.506;13.462;2022-07-26T07:00:11;27.60;90.30
8463;DHT22;4268;52.506;13.462;2022-07-26T07:02:37;27.80;90.20
8463;DHT22;4268;52.506;13.462;2022-07-26T07:05:03;28.30;88.70
8463;DHT22;4268;52.506;13.462;2022-07-26T07:07:28;28.50;86.90
8463;DHT22;4268;52.506;13.462;2022-07-26T07:09:54;28.40;87.10
8463;DHT22;4268;52.506;13.462;2022-07-26T07:12:19;28.50;86.30
8463;DHT22;4268;52.506;13.462;2022-07-26T07:14:45;28.10;87.00
8463;DHT22;4268;52.506;13.462;2022-07-26T07:17:11;27.60;88.00
8463;DHT22;4268;52.506;13.462;2022-07-26T07:19:37;27.10;89.00
8463;DHT22;4268;52.506;13.462;2022-07-26T07:22:04;26.60;89.70
8463;DHT22;4268;52.506;13.462;2022-07-26T07:24:30;26.30;90.30
8463;DHT22;4268;52.506;13.462;2022-07-26T07:26:55;26.00;90.60
8463;DHT22;4268;52.506;13.462;2022-07-26T07:29:21;25.80;90.60
8463;DHT22;4268;52.506;13.462;2022-07-26T07:31:47;25.90;90.70
8463;DHT22;4268;52.506;13.462;2022-07-26T07:34:14;25.90;90.30
8463;DHT22;4268;52.506;13.462;2022-07-26T07:36:40;25.90;90.10
8463;DHT22;4268;52.506;13.462;2022-07-26T07:39:06;25.80;90.40
8463;DHT22;4268;52.506;13.462;2022-07-26T07:41:31;25.50;90.30
8463;DHT22;4268;52.506;13.462;2022-07-26T07:43:59;25.40;90.60
8463;DHT22;4268;52.506;13.462;2022-07-26T07:46:24;25.10;91.00
8463;DHT22;4268;52.506;13.462;2022-07-26T07:48:50;25.10;91.00
8463;DHT22;4268;52.506;13.462;2022-07-26T07:51:15;25.20;91.30
8463;DHT22;4268;52.506;13.462;2022-07-26T07:53:41;25.10;90.90
8463;DHT22;4268;52.506;13.462;2022-07-26T07:56:07;25.10;91.20
8463;DHT22;4268;52.506;13.462;2022-07-26T07:58:33;25.20;91.40
8463;DHT22;4268;52.506;13.462;2022-07-26T08:00:58;25.50;91.20
8463;DHT22;4268;52.506;13.462;2022-07-26T08:03:23;25.60;90.80
8463;DHT22;4268;52.506;13.462;2022-07-26T08:05:49;25.80;90.70
8463;DHT22;4268;52.506;13.462;2022-07-26T08:08:14;26.00;90.40
8463;DHT22;4268;52.506;13.462;2022-07-26T08:10:41;26.10;89.50
8463;DHT22;4268;52.506;13.462;2022-07-26T08:13:06;26.00;89.30
8463;DHT22;4268;52.506;13.462;2022-07-26T08:15:33;26.00;90.30
8463;DHT22;4268;52.506;13.462;2022-07-26T08:17:58;26.10;90.30
8463;DHT22;4268;52.506;13.462;2022-07-26T08:20:24;26.10;88.90
8463;DHT22;4268;52.506;13.462;2022-07-26T08:22:49;26.00;88.60
8463;DHT22;4268;52.506;13.462;2022-07-26T08:25:15;25.90;89.90
8463;DHT22;4268;52.506;13.462;2022-07-26T08:27:41;25.90;89.10
8463;DHT22;4268;52.506;13.462;2022-07-26T08:30:07;25.80;88.60
8463;DHT22;4268;52.506;13.462;2022-07-26T08:32:33;25.60;89.80
8463;DHT22;4268;52.506;13.462;2022-07-26T08:34:58;25.40;90.40
8463;DHT22;4268;52.506;13.462;2022-07-26T08:37:23;25.20;90.30
8463;DHT22;4268;52.506;13.462;2022-07-26T08:39:49;25.10;90.60
8463;DHT22;4268;52.506;13.462;2022-07-26T08:42:17;24.80;90.60
8463;DHT22;4268;52.506;13.462;2022-07-26T08:44:45;24.70;90.70
8463;DHT22;4268;52.506;13.462;2022-07-26T08:47:16;24.50;90.60
8463;DHT22;4268;52.506;13.462;2022-07-26T08:49:42;24.50;90.00
8463;DHT22;4268;52.506;13.462;2022-07-26T08:52:10;24.30;90.40
8463;DHT22;4268;52.506;13.462;2022-07-26T08:54:41;24.10;90.70
8463;DHT22;4268;52.506;13.462;2022-07-26T08:57:06;24.10;90.90
8463;DHT22;4268;52.506;13.462;2022-07-26T08:59:32;24.20;91.20
8463;DHT22;4268;52.506;13.462;2022-07-26T09:02:04;24.30;91.20
8463;DHT22;4268;52.506;13.462;2022-07-26T09:04:31;24.30;90.50
8463;DHT22;4268;52.506;13.462;2022-07-26T09:07:07;24.30;91.10
8463;DHT22;4268;52.506;13.462;2022-07-26T09:09:36;24.20;90.70
8463;DHT22;4268;52.506;13.462;2022-07-26T09:12:17;24.10;91.00
8463;DHT22;4268;52.506;13.462;2022-07-26T09:14:44;24.10;91.00
8463;DHT22;4268;52.506;13.462;2022-07-26T09:17:14;24.20;90.70
8463;DHT22;4268;52.506;13.462;2022-07-26T09:19:40;24.20;90.80
8463;DHT22;4268;52.506;13.462;2022-07-26T09:22:15;24.10;90.90
8463;DHT22;4268;52.506;13.462;2022-07-26T09:24:45;24.00;90.80
8463;DHT22;4268;52.506;13.462;2022-07-26T09:27:15;24.10;91.10
8463;DHT22;4268;52.506;13.462;2022-07-26T09:29:42;24.20;91.10
8463;DHT22;4268;52.506;13.462;2022-07-26T09:32:22;24.50;91.20
8463;DHT22;4268;52.506;13.462;2022-07-26T09:34:54;24.70;90.10
8463;DHT22;4268;52.506;13.462;2022-07-26T09:37:34;24.70;89.60
8463;DHT22;4268;52.506;13.462;2022-07-26T09:40:03;24.60;89.60
8463;DHT22;4268;52.506;13.462;2022-07-26T09:42:28;24.60;89.60
8463;DHT22;4268;52.506;13.462;2022-07-26T09:44:55;24.50;90.00
8463;DHT22;4268;52.506;13.462;2022-07-26T09:47:21;24.50;90.10
8463;DHT22;4268;52.506;13.462;2022-07-26T09:49:47;24.50;90.40
8463;DHT22;4268;52.506;13.462;2022-07-26T09:52:16;24.50;90.30
8463;DHT22;4268;52.506;13.462;2022-07-26T09:54:42;24.50;90.10
8463;DHT22;4268;52.506;13.462;2022-07-26T09:57:10;24.60;90.30
8463;DHT22;4268;52.506;13.462;2022-07-26T09:59:35;24.80;90.40
8463;DHT22;4268;52.506;13.462;2022-07-26T10:02:01;24.90;90.00
8463;DHT22;4268;52.506;13.462;2022-07-26T10:04:26;25.10;89.20
8463;DHT22;4268;52.506;13.462;2022-07-26T10:06:53;25.20;89.10
8463;DHT22;4268;52.506;13.462;2022-07-26T10:09:19;25.40;88.20
8463;DHT22;4268;52.506;13.462;2022-07-26T10:11:51;25.60;88.40
8463;DHT22;4268;52.506;13.462;2022-07-26T10:19:53;25.60;87.00
8463;DHT22;4268;52.506;13.462;2022-07-26T10:22:32;25.30;87.80
8463;DHT22;4268;52.506;13.462;2022-07-26T10:27:43;25.00;87.50
8463;DHT22;4268;52.506;13.462;2022-07-26T10:32:56;24.80;88.00
8463;DHT22;4268;52.506;13.462;2022-07-26T10:37:57;24.80;88.60
8463;DHT22;4268;52.506;13.462;2022-07-26T10:40:23;24.90;88.60
8463;DHT22;4268;52.506;13.462;2022-07-26T10:43:12;25.00;89.10
8463;DHT22;4268;52.506;13.462;2022-07-26T10:45:38;25.10;88.50
8463;DHT22;4268;52.506;13.462;2022-07-26T10:48:20;25.20;88.30
8463;DHT22;4268;52.506;13.462;2022-07-26T10:50:51;25.20;87.70
8463;DHT22;4268;52.506;13.462;2022-07-26T10:53:22;25.20;87.80
8463;DHT22;4268;52.506;13.462;2022-07-26T10:55:53;25.00;86.80
8463;DHT22;4268;52.506;13.462;2022-07-26T10:58:24;24.90;86.60
8463;DHT22;4268;52.506;13.462;2022-07-26T11:00:58;24.80;87.20
8463;DHT22;4268;52.506;13.462;2022-07-26T11:03:33;24.70;88.10
8463;DHT22;4268;52.506;13.462;2022-07-26T11:08:36;24.90;87.80
8463;DHT22;4268;52.506;13.462;2022-07-26T11:11:01;24.90;87.20
8463;DHT22;4268;52.506;13.462;2022-07-26T11:13:30;24.90;87.30
8463;DHT22;4268;52.506;13.462;2022-07-26T11:16:02;24.80;87.50
8463;DHT22;4268;52.506;13.462;2022-07-26T11:18:33;24.80;88.40
8463;DHT22;4268;52.506;13.462;2022-07-26T11:21:14;24.70;88.80
8463;DHT22;4268;52.506;13.462;2022-07-26T11:23:44;24.70;88.70
8463;DHT22;4268;52.506;13.462;2022-07-26T11:31:12;25.40;88.80
8463;DHT22;4268;52.506;13.462;2022-07-26T11:33:40;25.70;88.00
8463;DHT22;4268;52.506;13.462;2022-07-26T11:36:06;25.80;87.40
8463;DHT22;4268;52.506;13.462;2022-07-26T11:38:50;26.00;87.30
8463;DHT22;4268;52.506;13.462;2022-07-26T11:41:24;25.90;86.10
8463;DHT22;4268;52.506;13.462;2022-07-26T11:43:52;25.90;86.10
8463;DHT22;4268;52.506;13.462;2022-07-26T11:46:19;25.80;86.10
8463;DHT22;4268;52.506;13.462;2022-07-26T11:48:46;25.90;85.90
8463;DHT22;4268;52.506;13.462;2022-07-26T11:51:14;25.90;86.10
8463;DHT22;4268;52.506;13.462;2022-07-26T11:53:40;25.80;86.00
8463;DHT22;4268;52.506;13.462;2022-07-26T11:56:14;25.70;86.00
8463;DHT22;4268;52.506;13.462;2022-07-26T11:58:41;25.60;85.80
8463;DHT22;4268;52.506;13.462;2022-07-26T12:01:08;25.40;85.70
8463;DHT22;4268;52.506;13.462;2022-07-26T12:03:38;25.40;86.50
8463;DHT22;4268;52.506;13.462;2022-07-26T12:06:08;25.20;87.40
8463;DHT22;4268;52.506;13.462;2022-07-26T12:11:07;25.20;89.30
8463;DHT22;4268;52.506;13.462;2022-07-26T12:13:51;25.10;89.00
8463;DHT22;4268;52.506;13.462;2022-07-26T12:16:45;25.00;89.90
8463;DHT22;4268;52.506;13.462;2022-07-26T12:21:50;24.80;87.90
8463;DHT22;4268;52.506;13.462;2022-07-26T12:27:20;24.50;87.20
8463;DHT22;4268;52.506;13.462;2022-07-26T12:29:52;24.30;88.10
8463;DHT22;4268;52.506;13.462;2022-07-26T12:32:33;24.10;90.90
8463;DHT22;4268;52.506;13.462;2022-07-26T12:35:08;23.80;92.80
8463;DHT22;4268;52.506;13.462;2022-07-26T12:40:18;23.20;96.90
8463;DHT22;4268;52.506;13.462;2022-07-26T12:42:59;22.90;97.80
8463;DHT22;4268;52.506;13.462;2022-07-26T12:45:32;22.60;98.90
8463;DHT22;4268;52.506;13.462;2022-07-26T12:48:01;22.30;99.80
8463;DHT22;4268;52.506;13.462;2022-07-26T12:50:28;22.00;99.90
8463;DHT22;4268;52.506;13.462;2022-07-26T12:53:03;21.70;99.90
8463;DHT22;4268;52.506;13.462;2022-07-26T12:55:29;21.50;99.90
8463;DHT22;4268;52.506;13.462;2022-07-26T12:57:55;21.30;99.90
8463;DHT22;4268;52.506;13.462;2022-07-26T13:00:20;21.20;99.90
8463;DHT22;4268;52.506;13.462;2022-07-26T13:02:46;21.10;99.90
8463;DHT22;4268;52.506;13.462;2022-07-26T13:05:12;21.00;99.90
8463;DHT22;4268;52.506;13.462;2022-07-26T13:07:38;21.00;99.90
8463;DHT22;4268;52.506;13.462;2022-07-26T13:10:06;21.10;99.90
8463;DHT22;4268;52.506;13.462;2022-07-26T13:12:31;21.10;99.90
8463;DHT22;4268;52.506;13.462;2022-07-26T13:14:57;21.10;99.90
8463;DHT22;4268;52.506;13.462;2022-07-26T13:17:22;21.10;99.90
8463;DHT22;4268;52.506;13.462;2022-07-26T13:19:48;21.00;99.90
8463;DHT22;4268;52.506;13.462;2022-07-26T13:22:13;21.00;99.90
8463;DHT22;4268;52.506;13.462;2022-07-26T13:24:39;20.90;99.90
8463;DHT22;4268;52.506;13.462;2022-07-26T13:27:06;20.90;99.90
8463;DHT22;4268;52.506;13.462;2022-07-26T13:29:33;20.90;99.90
8463;DHT22;4268;52.506;13.462;2022-07-26T13:31:59;20.90;99.90
8463;DHT22;4268;52.506;13.462;2022-07-26T13:34:25;20.90;99.90
8463;DHT22;4268;52.506;13.462;2022-07-26T13:36:51;20.90;99.90
8463;DHT22;4268;52.506;13.462;2022-07-26T13:39:17;20.80;99.90
8463;DHT22;4268;52.506;13.462;2022-07-26T13:41:43;20.70;99.90
8463;DHT22;4268;52.506;13.462;2022-07-26T13:44:08;20.70;99.90
8463;DHT22;4268;52.506;13.462;2022-07-26T13:46:34;20.80;99.90
8463;DHT22;4268;52.506;13.462;2022-07-26T13:49:01;20.80;99.90
8463;DHT22;4268;52.506;13.462;2022-07-26T13:51:29;20.90;99.90
8463;DHT22;4268;52.506;13.462;2022-07-26T13:54:15;21.10;99.90
8463;DHT22;4268;52.506;13.462;2022-07-26T13:56:41;21.10;99.90
8463;DHT22;4268;52.506;13.462;2022-07-26T13:59:08;21.20;99.90
8463;DHT22;4268;52.506;13.462;2022-07-26T14:01:34;21.20;99.90
8463;DHT22;4268;52.506;13.462;2022-07-26T14:04:01;21.20;99.90
8463;DHT22;4268;52.506;13.462;2022-07-26T14:06:27;21.20;99.90
8463;DHT22;4268;52.506;13.462;2022-07-26T14:08:53;21.20;99.90
8463;DHT22;4268;52.506;13.462;2022-07-26T14:11:18;21.30;99.90
8463;DHT22;4268;52.506;13.462;2022-07-26T14:13:44;21.30;99.90
8463;DHT22;4268;52.506;13.462;2022-07-26T14:16:10;21.40;99.90
8463;DHT22;4268;52.506;13.462;2022-07-26T14:18:35;21.50;99.90
8463;DHT22;4268;52.506;13.462;2022-07-26T14:21:01;21.50;99.90
8463;DHT22;4268;52.506;13.462;2022-07-26T14:23:27;21.50;99.90
8463;DHT22;4268;52.506;13.462;2022-07-26T14:25:53;21.60;99.90
8463;DHT22;4268;52.506;13.462;2022-07-26T14:28:18;21.60;99.90
8463;DHT22;4268;52.506;13.462;2022-07-26T14:30:44;21.60;99.90
8463;DHT22;4268;52.506;13.462;2022-07-26T14:33:10;21.60;99.90
8463;DHT22;4268;52.506;13.462;2022-07-26T14:35:35;21.60;99.90
8463;DHT22;4268;52.506;13.462;2022-07-26T14:38:01;21.70;99.90
8463;DHT22;4268;52.506;13.462;2022-07-26T14:40:26;21.80;99.90
8463;DHT22;4268;52.506;13.462;2022-07-26T14:42:52;21.80;99.90
8463;DHT22;4268;52.506;13.462;2022-07-26T14:45:17;21.90;99.90
8463;DHT22;4268;52.506;13.462;2022-07-26T14:47:43;21.90;99.90
8463;DHT22;4268;52.506;13.462;2022-07-26T14:50:10;21.90;99.90
8463;DHT22;4268;52.506;13.462;2022-07-26T14:52:38;21.90;99.90
8463;DHT22;4268;52.506;13.462;2022-07-26T14:55:04;22.00;99.90
8463;DHT22;4268;52.506;13.462;2022-07-26T14:57:30;22.00;99.90
8463;DHT22;4268;52.506;13.462;2022-07-26T14:59:55;22.10;99.90
8463;DHT22;4268;52.506;13.462;2022-07-26T15:02:21;22.00;99.90
8463;DHT22;4268;52.506;13.462;2022-07-26T15:04:47;22.00;99.90
8463;DHT22;4268;52.506;13.462;2022-07-26T15:07:12;21.90;99.90
8463;DHT22;4268;52.506;13.462;2022-07-26T15:09:38;21.90;99.90
8463;DHT22;4268;52.506;13.462;2022-07-26T15:12:03;22.00;99.90
8463;DHT22;4268;52.506;13.462;2022-07-26T15:14:29;22.30;99.90
8463;DHT22;4268;52.506;13.462;2022-07-26T15:16:54;22.00;99.90
8463;DHT22;4268;52.506;13.462;2022-07-26T15:19:20;22.10;99.90
8463;DHT22;4268;52.506;13.462;2022-07-26T15:21:47;22.10;99.90
8463;DHT22;4268;52.506;13.462;2022-07-26T15:24:13;22.20;99.90
8463;DHT22;4268;52.506;13.462;2022-07-26T15:26:38;22.40;99.90
8463;DHT22;4268;52.506;13.462;2022-07-26T15:29:04;22.70;99.90
8463;DHT22;4268;52.506;13.462;2022-07-26T15:31:29;22.50;99.90
8463;DHT22;4268;52.506;13.462;2022-07-26T15:33:55;22.50;99.90
8463;DHT22;4268;52.506;13.462;2022-07-26T15:36:21;22.50;99.90
8463;DHT22;4268;52.506;13.462;2022-07-26T15:38:47;22.60;99.90
8463;DHT22;4268;52.506;13.462;2022-07-26T15:41:13;22.70;99.90
8463;DHT22;4268;52.506;13.462;2022-07-26T15:43:39;22.70;99.90
8463;DHT22;4268;52.506;13.462;2022-07-26T15:46:04;22.80;99.90
8463;DHT22;4268;52.506;13.462;2022-07-26T15:48:30;22.80;99.90
8463;DHT22;4268;52.506;13.462;2022-07-26T15:50:55;22.70;99.90
8463;DHT22;4268;52.506;13.462;2022-07-26T15:53:23;22.70;99.90
8463;DHT22;4268;52.506;13.462;2022-07-26T15:55:48;22.70;99.90
8463;DHT22;4268;52.506;13.462;2022-07-26T15:58:14;22.80;99.90
8463;DHT22;4268;52.506;13.462;2022-07-26T16:00:40;22.70;99.90
8463;DHT22;4268;52.506;13.462;2022-07-26T16:03:06;22.70;99.90
8463;DHT22;4268;52.506;13.462;2022-07-26T16:05:31;22.60;99.90
8463;DHT22;4268;52.506;13.462;2022-07-26T16:07:58;22.50;99.90
8463;DHT22;4268;52.506;13.462;2022-07-26T16:10:24;22.40;99.90
8463;DHT22;4268;52.506;13.462;2022-07-26T16:12:50;22.30;99.90
8463;DHT22;4268;52.506;13.462;2022-07-26T16:15:15;22.40;99.90